Amanda, OH (43102)

11:23 PM EST on January 29, 2015 (GMT -0500)
APRSWXNET Amanda OH US | Change Station
CLOSE
Current Station
Personal Weather Station
Location: Amanda, OH
Elevation: 1079 ft
Nearby Weather Stations
Active Advisory: Special Statement

Elev 1079 ft 39.62 °N, 82.77 °W | Updated 53 minutes ago

Snow
Snow
31 °F
Feels Like 31 °F
N
0
Wind Variable Wind from North
Gusts 0.0 mph

Today
High -- | Low -- °F
--% Chance of Precip.
Yesterday
High -- | Low -- °F
Precip. -- in
7:41 AM 5:47 PM
Waxing Gibbous, 79% visible
Pressure 30.09 in
Visibility 2.5 miles
Clouds Few 600 ft
Mostly Cloudy 1300 ft
Overcast 1800 ft
Windchill 31 °F
Dew Point 29 °F
Humidity 92%
Rainfall 0.00 in
Snow Depth Not available.
UV 0 out of 12
Pollen .10 out of 12
Air Quality Not available.
Flu Activity Not available.
SPECI KLHQ 300419Z AUTO 28009G16KT 250V310 2 1/2SM -SN BR FEW006 BKN013 OVC018 01/M01 A3009 RMK AO2 P0001 T00061011

More Conditions Fewer Conditions

Pressure 30.09 in
Visibility 2.5 miles
Clouds Few 600 ft
Mostly Cloudy 1300 ft
Overcast 1800 ft
Windchill 31 °F
Dew Point 29 °F
Humidity 92%
Rainfall 0.00 in
Snow Depth Not available.
UV 0 out of 12
Pollen .10 out of 12
Air Quality Not available.
Flu Activity Not available.
SPECI KLHQ 300419Z AUTO 28009G16KT 250V310 2 1/2SM -SN BR FEW006 BKN013 OVC018 01/M01 A3009 RMK AO2 P0001 T00061011

More Conditions Fewer Conditions

10-Day Weather Forecast

Almanac

Astronomy

Jan. 29, 2015 Rise Set
Actual Time
Civil Twilight
Nautical Twilight
Astronomical Twilight
Moon
Length of Visible Light
Length of Day
Tomorrow will be .
, % of the Moon is Illuminated

Today's Extremes

State Highs State Lows

Community

WunderPhotos

Upload Photos

1,791,706 photos uploaded!

WunderBlogs® & News

Nearby

Air Quality

  Air Quality AQ Index Pollutant
Not available.

Snow Depth

Station Depth Elevation

Earthquake Activity

City Distance Mag. Time & Date
Minimum magnitude displayed is 2.5.

Coastal Water Temperatures

Place Temperature

Nearby Weather Stations